Schellsburg, PA (15559)

7:16 AM EDT on July 04, 2015 (GMT -0400)
Bedford County | | Change Station
CLOSE
Current Station
Airport
Location: Bedford County,
Elevation: 1161 ft
Nearby Weather Stations

Elev 1161 ft 40.08 °N, 78.50 °W | Updated 21 minutes ago

Overcast
Overcast
64 °F
Feels Like 64 °F
N
7
Wind Variable Wind from SSE

Today
High -- | Low -- °F
--% Chance of Precip.
Yesterday
High -- | Low -- °F
Precip. -- in
5:50 AM 8:47 PM
Waning Gibbous, 93% visible
Pressure 29.89 in
Visibility 5.0 miles
Clouds Overcast 800 ft
Dew Point 62 °F
Humidity 92%
Rainfall 0.67 in
Snow Depth Not available.
UV 0 out of 12
Pollen .50 out of 12
Air Quality Not available.
Flu Activity Not available.
METAR KHMZ 041055Z AUTO 16006KT 5SM BR OVC008 18/17 A2989 RMK AO2 T01780165

More Conditions Fewer Conditions

Pressure 29.89 in
Visibility 5.0 miles
Clouds Overcast 800 ft
Dew Point 62 °F
Humidity 92%
Rainfall 0.67 in
Snow Depth Not available.
UV 0 out of 12
Pollen .50 out of 12
Air Quality Not available.
Flu Activity Not available.
METAR KHMZ 041055Z AUTO 16006KT 5SM BR OVC008 18/17 A2989 RMK AO2 T01780165

More Conditions Fewer Conditions

10-Day Weather Forecast

×

Almanac

Astronomy

Jul. 04, 2015 Rise Set
Actual Time
Civil Twilight
Nautical Twilight
Astronomical Twilight
Moon
Length of Visible Light
Length of Day
Tomorrow will be .
, % of the Moon is Illuminated

Today's Extremes

State Highs State Lows

Community

WunderPhotos

Upload Photos

1,834,939 photos uploaded!

WunderBlogs® & News

Nearby

Air Quality

  Air Quality AQ Index Pollutant
Not available.

Snow Depth

Station Depth Elevation

Earthquake Activity

City Distance Mag. Time & Date
Minimum magnitude displayed is 2.5.

Coastal Water Temperatures

Place Temperature

Stations

Nearby Weather Stations

Station Location Temp. Windchill Dew Point Humidity Wind Precip. Elev Updated Type